Time;durP1;ratioP1;P1;durP2;ratioP2;P2;SDS_P1;SDS_P2;PMS_P1;PMS_P2;Temp;Humidity;BMP_temperature;BMP_pressure;BME280_temperature;BME280_humidity;BME280_pressure;Samples;Min_cycle;Max_cycle;Signal;HPM_P1;HPM_P2
2021/04/22 00:03:02;;;;;;;14.93;13.43;;;;;;;10.44;61.15;99830.48;232869;1203;103213;-73
2021/04/22 00:08:08;;;;;;;14.75;12.35;;;;;;;10.44;61.37;99845.58;232822;1203;103529;-73
2021/04/22 00:13:12;;;;;;;14.10;12.60;;;;;;;10.45;62.56;99839.32;233232;1203;105917;-74
2021/04/22 00:18:14;;;;;;;15.70;12.70;;;;;;;10.28;64.68;99837.44;233253;1203;103216;-73
2021/04/22 00:23:16;;;;;;;15.65;13.95;;;;;;;10.22;66.34;99843.91;233294;1203;103216;-73
2021/04/22 00:28:18;;;;;;;15.00;13.00;;;;;;;10.08;67.87;99851.72;233089;1203;103216;-73
2021/04/22 00:33:22;;;;;;;14.73;12.50;;;;;;;9.94;69.69;99861.17;233025;1203;103175;-72
2021/04/22 00:38:23;;;;;;;18.07;16.07;;;;;;;9.82;73.34;99875.05;233193;1203;103523;-71
2021/04/22 00:43:26;;;;;;;15.88;13.75;;;;;;;9.79;74.18;99872.55;232941;1203;103334;-73
2021/04/22 00:48:28;;;;;;;16.55;14.35;;;;;;;9.91;74.71;99866.66;232859;1203;103219;-74
2021/04/22 00:53:30;;;;;;;19.00;14.80;;;;;;;9.98;75.34;99872.55;232969;1203;103146;-71
2021/04/22 00:58:31;;;;;;;15.15;11.73;;;;;;;10.19;75.56;99857.39;232674;1203;103242;-73
2021/04/22 01:03:33;;;;;;;16.35;14.65;;;;;;;10.03;77.67;99876.73;232811;1203;103238;-73
2021/04/22 01:08:34;;;;;;;16.30;12.67;;;;;;;9.84;78.91;99902.48;232833;1203;103152;-73
2021/04/22 01:13:36;;;;;;;13.70;11.83;;;;;;;10.03;78.57;99892.72;232808;1203;103577;-76
2021/04/22 01:18:40;;;;;;;12.65;11.35;;;;;;;10.11;78.11;99883.52;232836;1203;103377;-73
2021/04/22 01:23:41;;;;;;;12.85;11.55;;;;;;;10.11;78.82;99883.52;232908;1203;103230;-73
2021/04/22 01:28:42;;;;;;;12.77;11.30;;;;;;;9.94;79.52;99877.15;232850;1203;103206;-74
2021/04/22 01:33:44;;;;;;;11.83;10.63;;;;;;;9.78;80.75;99884.13;232834;1203;103197;-72
2021/04/22 01:38:46;;;;;;;12.70;11.10;;;;;;;9.67;81.41;99873.95;232849;1203;103216;-75
2021/04/22 01:43:47;;;;;;;13.10;11.40;;;;;;;9.50;82.88;99893.33;232762;1203;104697;-73
2021/04/22 01:48:49;;;;;;;11.95;10.70;;;;;;;9.28;83.40;99904.89;232807;1203;103140;-72
2021/04/22 01:53:51;;;;;;;14.35;12.70;;;;;;;9.18;83.81;99914.17;232718;1203;103494;-73
2021/04/22 01:58:52;;;;;;;13.85;11.05;;;;;;;9.18;84.20;99914.17;232881;1203;103571;-73
2021/04/22 02:03:53;;;;;;;12.10;10.30;;;;;;;9.12;84.28;99919.75;232822;1202;103239;-72
2021/04/22 02:08:55;;;;;;;11.10;9.73;;;;;;;8.95;85.01;99917.80;232823;1203;103220;-73
2021/04/22 02:13:56;;;;;;;11.50;10.40;;;;;;;8.81;84.05;99926.34;232736;1203;103335;-74
2021/04/22 02:18:58;;;;;;;16.25;14.55;;;;;;;8.53;84.76;99936.26;232731;1203;103232;-72
2021/04/22 02:23:59;;;;;;;11.73;9.40;;;;;;;8.39;84.37;99949.17;232796;1203;103210;-72
2021/04/22 02:29:01;;;;;;;9.25;8.30;;;;;;;8.27;84.47;99945.19;232821;1203;103548;-72
2021/04/22 02:34:03;;;;;;;8.70;7.70;;;;;;;8.11;85.09;99951.06;232848;1203;103164;-73
2021/04/22 02:39:06;;;;;;;8.23;7.10;;;;;;;7.98;85.82;99953.32;232824;1203;103181;-71
2021/04/22 02:44:07;;;;;;;7.90;7.07;;;;;;;8.10;84.93;99961.74;232820;1203;105451;-74
2021/04/22 02:49:09;;;;;;;9.63;7.00;;;;;;;8.05;85.03;99961.05;232830;1203;103226;-73
2021/04/22 02:54:10;;;;;;;8.90;8.10;;;;;;;8.18;83.93;99953.48;232790;1203;103280;-74
2021/04/22 02:59:11;;;;;;;9.85;8.85;;;;;;;8.26;84.04;99940.80;232806;1203;103498;-74
2021/04/22 03:04:13;;;;;;;7.50;6.70;;;;;;;8.54;82.01;99915.86;232744;1203;103148;-74
2021/04/22 03:09:14;;;;;;;7.23;6.53;;;;;;;8.57;81.92;99931.69;232788;1203;103241;-74
2021/04/22 03:14:16;;;;;;;8.85;6.70;;;;;;;8.47;81.43;99962.18;232792;1203;103178;-74
2021/04/22 03:19:17;;;;;;;9.40;6.50;;;;;;;8.41;81.08;99972.09;232883;1203;103607;-74
2021/04/22 03:24:19;;;;;;;9.70;7.10;;;;;;;8.31;82.05;99973.38;232793;1203;103239;-74
2021/04/22 03:29:20;;;;;;;8.40;6.50;;;;;;;8.18;82.91;99985.34;233171;1203;103146;-74
2021/04/22 03:34:22;;;;;;;7.75;6.55;;;;;;;8.01;79.92;100000.12;233095;1203;103290;-74
2021/04/22 03:39:23;;;;;;;8.85;5.68;;;;;;;7.94;76.64;100006.56;232971;1203;103219;-73
2021/04/22 03:44:25;;;;;;;6.77;5.20;;;;;;;8.00;76.54;100002.83;232837;1203;103568;-73
2021/04/22 03:49:26;;;;;;;7.70;5.15;;;;;;;8.00;76.34;99981.59;232938;1203;103150;-73
2021/04/22 03:54:28;;;;;;;8.80;4.50;;;;;;;7.75;79.05;99996.58;232753;1203;103229;-74
2021/04/22 03:59:29;;;;;;;6.97;4.30;;;;;;;7.77;80.54;100007.16;232787;1203;103245;-74
2021/04/22 04:04:31;;;;;;;5.97;4.00;;;;;;;7.70;80.83;100006.48;232967;1203;103201;-73
2021/04/22 04:09:33;;;;;;;7.60;5.30;;;;;;;7.66;82.29;100023.44;233148;1203;103149;-72
2021/04/22 04:14:35;;;;;;;9.40;4.08;;;;;;;7.30;84.95;100040.50;232685;1203;103277;-72
2021/04/22 04:19:37;;;;;;;9.17;5.73;;;;;;;7.00;90.41;100042.34;232859;1203;103558;-72
2021/04/22 04:24:38;;;;;;;7.00;3.60;;;;;;;6.68;96.55;100065.39;232885;1203;103267;-74
2021/04/22 04:29:39;;;;;;;9.83;5.03;;;;;;;6.40;100.00;100071.47;232861;1203;103612;-73
2021/04/22 04:34:41;;;;;;;14.57;6.53;;;;;;;6.70;100.00;100072.38;232841;1203;103146;-74
2021/04/22 04:39:43;;;;;;;13.50;5.85;;;;;;;6.63;100.00;100089.36;232864;1203;103178;-72
2021/04/22 04:44:44;;;;;;;10.87;4.80;;;;;;;6.20;100.00;100094.04;232759;1203;103214;-72
2021/04/22 04:49:47;;;;;;;7.70;3.30;;;;;;;5.94;100.00;100094.72;232870;1203;103491;-72
2021/04/22 04:54:48;;;;;;;6.70;4.15;;;;;;;5.93;100.00;100122.08;232910;1203;103213;-73
2021/04/22 04:59:49;;;;;;;2.90;1.47;;;;;;;4.91;100.00;100113.83;232870;1203;103271;-72
2021/04/22 05:04:51;;;;;;;5.97;2.50;;;;;;;5.36;100.00;100091.70;232914;1203;103252;-72
2021/04/22 05:09:52;;;;;;;3.75;2.15;;;;;;;5.78;100.00;100091.56;232903;1203;103270;-71
2021/04/22 05:14:54;;;;;;;6.20;2.70;;;;;;;5.87;100.00;100093.99;232796;1203;103242;-73
2021/04/22 05:19:55;;;;;;;3.90;2.60;;;;;;;5.65;100.00;100101.60;232863;1203;103222;-72
2021/04/22 05:24:57;;;;;;;7.90;3.73;;;;;;;5.65;100.00;100112.18;232813;1203;103142;-73
2021/04/22 05:29:58;;;;;;;4.20;2.73;;;;;;;5.72;100.00;100124.34;232744;1203;103140;-73
2021/04/22 05:34:59;;;;;;;5.80;2.70;;;;;;;5.80;100.00;100121.50;232786;1203;103145;-73
2021/04/22 05:40:01;;;;;;;8.90;3.60;;;;;;;5.74;100.00;100132.23;232779;1203;103232;-74
2021/04/22 05:45:05;;;;;;;7.63;3.53;;;;;;;5.70;100.00;100135.88;232812;1203;105039;-72
2021/04/22 05:50:07;;;;;;;5.80;4.25;;;;;;;5.77;100.00;100132.17;233019;1203;103156;-73
2021/04/22 05:55:10;;;;;;;6.60;3.60;;;;;;;5.76;100.00;100125.14;232782;1203;103220;-72
2021/04/22 06:00:15;;;;;;;6.70;4.23;;;;;;;5.86;100.00;100126.64;232768;1203;116645;-73
2021/04/22 06:05:17;;;;;;;6.97;4.43;;;;;;;5.73;100.00;100136.67;233159;1203;103140;-70
2021/04/22 06:10:20;;;;;;;6.53;4.23;;;;;;;6.00;100.00;100138.68;232835;1203;103164;-75
2021/04/22 06:15:22;;;;;;;7.80;3.63;;;;;;;5.93;100.00;100145.00;232864;1202;103223;-74
2021/04/22 06:20:24;;;;;;;7.00;3.70;;;;;;;5.78;100.00;100155.05;232788;1203;103216;-73
2021/04/22 06:25:26;;;;;;;6.93;3.40;;;;;;;6.25;100.00;100153.95;232915;1203;103126;-73
2021/04/22 06:30:28;;;;;;;4.30;2.13;;;;;;;6.27;100.00;100152.14;232792;1203;103245;-72
2021/04/22 06:35:30;;;;;;;7.57;2.80;;;;;;;6.61;100.00;100152.09;232857;1203;103561;-72
2021/04/22 06:40:32;;;;;;;7.03;3.00;;;;;;;6.41;100.00;100157.05;232962;1203;103235;-72
2021/04/22 06:45:34;;;;;;;7.80;2.65;;;;;;;6.59;100.00;100160.99;232960;1203;103127;-74
2021/04/22 06:50:36;;;;;;;7.33;2.43;;;;;;;6.39;100.00;100165.05;232718;1203;103453;-75
2021/04/22 06:55:39;;;;;;;7.18;2.35;;;;;;;6.59;100.00;100159.20;232874;1203;103280;-71
2021/04/22 07:00:43;;;;;;;9.77;3.30;;;;;;;6.36;100.00;100168.66;232916;1203;103210;-73
2021/04/22 07:05:44;;;;;;;4.15;1.95;;;;;;;6.44;96.33;100184.32;233413;1203;103157;-73
2021/04/22 07:10:46;;;;;;;7.90;2.10;;;;;;;6.60;87.78;100183.92;232953;1203;103152;-73
2021/04/22 07:15:47;;;;;;;6.65;2.35;;;;;;;6.67;82.05;100190.80;232975;1203;103146;-74
2021/04/22 07:20:49;;;;;;;6.60;2.05;;;;;;;6.36;77.46;100210.13;232799;1203;104538;-71
2021/04/22 07:25:51;;;;;;;5.00;1.80;;;;;;;6.17;73.97;100210.59;232833;1203;103699;-74
2021/04/22 07:30:53;;;;;;;5.80;1.60;;;;;;;5.95;74.91;100222.58;232815;1203;103201;-72
2021/04/22 07:35:55;;;;;;;10.35;2.35;;;;;;;6.13;78.19;100224.80;232915;1203;103229;-74
2021/04/22 07:40:56;;;;;;;7.20;2.40;;;;;;;6.16;77.45;100218.59;233015;1206;103219;-74
2021/04/22 07:45:58;;;;;;;5.25;1.80;;;;;;;6.08;78.33;100231.13;233464;1202;103225;-72
2021/04/22 07:51:00;;;;;;;6.75;3.30;;;;;;;6.11;79.89;100221.34;233396;1203;103218;-75
2021/04/22 07:56:01;;;;;;;8.60;2.63;;;;;;;6.26;82.86;100224.52;233273;1202;103287;-73
2021/04/22 08:01:03;;;;;;;8.15;3.10;;;;;;;6.41;80.73;100229.44;233365;1202;103159;-74
2021/04/22 08:06:05;;;;;;;5.15;2.20;;;;;;;6.42;73.71;100241.73;233213;1203;103155;-73
2021/04/22 08:11:07;;;;;;;9.63;2.55;;;;;;;6.46;75.33;100246.06;232791;1203;103175;-72
2021/04/22 08:16:09;;;;;;;3.60;1.28;;;;;;;6.57;72.51;100263.45;232930;1202;103178;-74
2021/04/22 08:21:11;;;;;;;9.00;2.13;;;;;;;6.53;71.69;100266.19;232812;1203;103146;-72
2021/04/22 08:26:17;;;;;;;6.57;2.30;;;;;;;6.48;67.16;100259.27;233148;1202;103516;-73
2021/04/22 08:31:24;;;;;;;5.40;1.90;;;;;;;6.76;67.91;100266.49;233136;1203;103169;-72
2021/04/22 08:36:26;;;;;;;4.90;2.03;;;;;;;6.60;62.35;100255.44;233020;1203;103280;-73
2021/04/22 08:41:28;;;;;;;6.90;2.25;;;;;;;6.92;64.65;100245.75;232699;1203;103225;-73
2021/04/22 08:46:31;;;;;;;6.47;1.90;;;;;;;6.75;60.95;100264.75;232856;1202;103219;-74
2021/04/22 08:51:33;;;;;;;13.63;4.73;;;;;;;7.01;59.97;100266.70;233209;1203;103258;-72
2021/04/22 08:56:37;;;;;;;6.17;2.70;;;;;;;7.01;60.11;100264.06;232909;1202;103580;-73
2021/04/22 09:01:39;;;;;;;9.45;2.45;;;;;;;7.45;61.47;100283.16;232849;1203;103274;-74
2021/04/22 09:06:40;;;;;;;6.15;2.20;;;;;;;7.00;61.52;100271.16;232881;1203;103236;-73
2021/04/22 09:11:45;;;;;;;8.63;3.20;;;;;;;7.24;59.90;100267.86;232860;1203;103219;-73
2021/04/22 09:16:47;;;;;;;7.65;2.60;;;;;;;7.34;60.65;100267.55;233104;1203;103174;-73
2021/04/22 09:21:57;;;;;;;9.80;2.90;;;;;;;7.64;60.76;100275.53;232869;1203;104701;-72
2021/04/22 09:27:04;;;;;;;9.30;3.18;;;;;;;7.67;59.83;100274.57;232910;1203;103255;-74
2021/04/22 09:32:23;;;;;;;8.30;3.43;;;;;;;7.43;60.83;100268.20;233241;1203;103207;-73
2021/04/22 09:37:41;;;;;;;9.90;3.13;;;;;;;7.64;59.58;100269.34;232945;1203;103223;-73
2021/04/22 09:42:43;;;;;;;6.23;2.97;;;;;;;7.87;59.21;100276.59;232848;1203;103085;-73
2021/04/22 09:47:45;;;;;;;6.93;2.70;;;;;;;8.14;58.44;100279.30;232898;1202;103225;-73
2021/04/22 09:52:51;;;;;;;9.85;3.40;;;;;;;8.13;58.64;100270.48;232882;1203;103300;-74
2021/04/22 09:57:53;;;;;;;9.25;2.70;;;;;;;7.89;60.12;100281.89;232932;1203;103219;-73
2021/04/22 10:03:00;;;;;;;8.27;2.47;;;;;;;8.56;58.90;100268.22;232883;1203;103213;-74
2021/04/22 10:08:04;;;;;;;4.90;2.40;;;;;;;8.23;57.25;100270.20;232951;1203;103229;-73
2021/04/22 10:13:11;;;;;;;9.60;3.03;;;;;;;8.23;57.21;100262.23;232867;1203;103162;-73
2021/04/22 10:18:13;;;;;;;9.30;3.50;;;;;;;8.43;56.82;100254.47;232919;1203;103219;-74
2021/04/22 10:23:14;;;;;;;5.70;1.85;;;;;;;8.47;56.21;100254.39;232846;1203;103152;-73
2021/04/22 10:28:16;;;;;;;6.40;1.75;;;;;;;8.73;57.27;100269.45;233044;1202;103225;-72
2021/04/22 10:33:18;;;;;;;7.95;3.35;;;;;;;8.54;59.70;100253.26;233567;1201;103194;-74
2021/04/22 10:38:21;;;;;;;5.80;3.57;;;;;;;9.14;58.71;100251.16;233166;1203;103229;-74
2021/04/22 10:43:25;;;;;;;5.35;2.98;;;;;;;8.96;56.71;100255.34;232731;1203;103686;-74
2021/04/22 10:48:27;;;;;;;5.10;2.70;;;;;;;9.04;56.10;100261.27;232808;1203;103482;-73
2021/04/22 10:53:29;;;;;;;9.60;2.80;;;;;;;8.97;53.90;100267.72;232807;1203;103603;-73
2021/04/22 10:58:37;;;;;;;5.83;2.43;;;;;;;8.85;54.23;100271.67;232846;1203;103213;-73
2021/04/22 11:03:45;;;;;;;4.95;2.43;;;;;;;9.02;52.88;100268.42;232835;1203;103136;-74
2021/04/22 11:08:49;;;;;;;6.00;2.47;;;;;;;9.37;53.95;100260.95;233221;1203;103209;-74
2021/04/22 11:14:12;;;;;;;6.60;2.50;;;;;;;10.29;52.56;100276.93;232814;1203;103209;-73
2021/04/22 11:19:19;;;;;;;4.90;2.90;;;;;;;9.98;51.85;100267.52;233396;1202;103130;-74
2021/04/22 11:24:42;;;;;;;4.80;2.25;;;;;;;10.58;49.95;100277.56;233365;1202;103568;-73
2021/04/22 11:29:53;;;;;;;4.27;2.10;;;;;;;9.28;52.83;100269.29;233500;1203;103232;-73
2021/04/22 11:35:09;;;;;;;3.10;1.90;;;;;;;9.62;50.67;100273.34;232944;1203;103219;-75
2021/04/22 11:40:23;;;;;;;8.07;3.23;;;;;;;9.52;51.98;100255.98;233165;1202;103204;-72
2021/04/22 11:45:28;;;;;;;6.00;2.30;;;;;;;9.43;53.29;100264.33;233155;1202;103223;-74
2021/04/22 11:50:54;;;;;;;6.70;2.60;;;;;;;9.69;51.17;100261.55;233255;1203;103133;-72
2021/04/22 11:55:57;;;;;;;5.27;2.23;;;;;;;9.57;52.59;100246.05;232746;1203;103139;-74
2021/04/22 12:01:05;;;;;;;4.65;1.90;;;;;;;11.04;46.44;100258.72;233208;1203;103341;-75
2021/04/22 12:06:08;;;;;;;9.25;3.25;;;;;;;9.67;47.70;100242.09;233156;1203;103146;-77
2021/04/22 12:11:15;;;;;;;6.25;2.45;;;;;;;11.36;44.90;100231.52;233477;1203;103213;-75
2021/04/22 12:16:17;;;;;;;3.15;1.90;;;;;;;12.19;40.88;100243.66;233211;1203;103217;-75
2021/04/22 12:21:26;;;;;;;5.35;2.60;;;;;;;12.19;40.67;100222.28;232762;1203;103203;-75
2021/04/22 12:26:35;;;;;;;6.23;2.43;;;;;;;12.22;40.14;100227.47;232879;1203;103217;-73
2021/04/22 12:32:09;;;;;;;8.67;1.93;;;;;;;10.95;43.62;100227.98;232878;1203;103230;-74
2021/04/22 12:37:15;;;;;;;7.00;3.40;;;;;;;11.23;43.89;100221.41;233018;1202;103281;-73
2021/04/22 12:42:36;;;;;;;6.43;2.03;;;;;;;12.20;41.12;100213.30;232956;1203;103181;-74
2021/04/22 12:47:55;;;;;;;5.70;2.67;;;;;;;12.55;40.23;100199.11;233353;1203;103142;-73
2021/04/22 12:53:13;;;;;;;4.33;1.67;;;;;;;11.76;39.04;100219.00;232942;1202;103216;-75
2021/04/22 12:58:17;;;;;;;7.55;3.40;;;;;;;13.04;39.49;100185.83;232966;1203;103156;-74
2021/04/22 13:03:29;;;;;;;5.75;2.23;;;;;;;12.98;38.42;100206.69;233306;1203;103195;-77
2021/04/22 13:08:31;;;;;;;4.95;3.73;;;;;;;13.27;38.00;100198.91;233519;1203;103820;-74
2021/04/22 13:13:36;;;;;;;3.50;1.95;;;;;;;13.28;35.47;100197.97;233513;1202;103198;-76
2021/04/22 13:18:38;;;;;;;;;;;;;;;13.17;34.69;100204.78;233140;1210;103137;-76
2021/04/22 13:23:41;;;;;;;3.70;1.45;;;;;;;13.38;36.26;100196.56;232855;1203;103163;-73
2021/04/22 13:28:43;;;;;;;3.17;1.60;;;;;;;11.05;39.39;100190.25;232964;1203;103497;-75
2021/04/22 13:33:46;;;;;;;4.13;2.10;;;;;;;12.62;36.79;100208.55;232908;1203;103140;-73
2021/04/22 13:38:59;;;;;;;3.95;2.00;;;;;;;12.77;37.12;100212.22;232983;1203;103213;-74
2021/04/22 13:44:04;;;;;;;4.00;1.80;;;;;;;12.81;35.96;100221.84;233047;1203;103235;-74
2021/04/22 13:49:14;;;;;;;3.10;1.45;;;;;;;13.82;33.57;100198.55;233430;1203;103223;-73
2021/04/22 13:54:21;;;;;;;3.23;1.87;;;;;;;13.65;34.19;100217.41;233113;1203;103309;-73
2021/04/22 13:59:25;;;;;;;8.07;1.80;;;;;;;13.09;35.49;100212.35;233854;1202;103245;-75
2021/04/22 14:04:27;;;;;;;2.70;1.40;;;;;;;12.67;34.51;100195.80;233109;1203;103236;-72
2021/04/22 14:09:31;;;;;;;3.30;1.55;;;;;;;11.55;36.78;100204.84;232896;1203;103300;-74
2021/04/22 14:14:32;;;;;;;3.40;1.50;;;;;;;10.49;37.90;100208.67;233050;1202;103219;-73
2021/04/22 14:19:35;;;;;;;3.13;1.37;;;;;;;10.39;39.84;100213.53;233442;1202;103159;-72
2021/04/22 14:24:37;;;;;;;4.08;1.60;;;;;;;10.12;42.47;100224.34;235262;1202;103258;-72
2021/04/22 14:29:39;;;;;;;4.23;2.27;;;;;;;9.36;49.38;100243.28;233136;1203;103239;-74
2021/04/22 14:34:40;;;;;;;9.40;2.90;;;;;;;8.87;60.73;100261.02;232855;1203;103600;-75
2021/04/22 14:39:42;;;;;;;7.50;3.25;;;;;;;8.74;68.18;100293.30;232841;1202;103265;-74
2021/04/22 14:44:44;;;;;;;4.05;2.35;;;;;;;10.44;60.46;100259.50;232910;1203;103193;-74
2021/04/22 14:49:45;;;;;;;5.55;2.55;;;;;;;11.99;54.96;100255.31;232855;1203;104729;-73
2021/04/22 14:54:47;;;;;;;4.65;2.00;;;;;;;10.02;58.05;100286.91;232904;1203;103552;-74
2021/04/22 14:59:49;;;;;;;4.50;2.00;;;;;;;9.17;60.90;100306.91;232987;1203;103226;-72
2021/04/22 15:04:50;;;;;;;6.20;2.20;;;;;;;8.41;59.60;100312.09;233105;1203;103267;-73
2021/04/22 15:09:54;;;;;;;3.10;1.28;;;;;;;7.77;64.02;100320.27;232843;1203;103212;-72
2021/04/22 15:14:57;;;;;;;5.33;1.87;;;;;;;7.06;70.78;100349.61;232988;1203;103216;-73
2021/04/22 15:20:00;;;;;;;5.15;3.20;;;;;;;7.02;73.68;100326.77;233437;1202;103169;-74
2021/04/22 15:25:01;;;;;;;5.05;1.98;;;;;;;7.72;63.75;100311.59;233772;1203;103292;-76
2021/04/22 15:30:05;;;;;;;2.53;1.15;;;;;;;8.53;54.84;100310.00;233600;1202;103575;-75
2021/04/22 15:35:09;;;;;;;2.53;1.23;;;;;;;8.87;56.12;100325.66;233202;1202;103219;-74
2021/04/22 15:40:12;;;;;;;6.08;2.78;;;;;;;8.93;59.08;100320.13;233186;1203;103223;-75
2021/04/22 15:45:15;;;;;;;4.45;1.70;;;;;;;8.43;57.34;100339.48;233364;1203;103140;-76
2021/04/22 15:50:19;;;;;;;7.98;3.78;;;;;;;7.76;61.28;100361.84;233037;1202;103204;-74
2021/04/22 15:55:24;;;;;;;5.58;1.95;;;;;;;7.20;67.74;100366.93;233168;1203;103211;-72
2021/04/22 16:00:29;;;;;;;3.53;2.13;;;;;;;6.81;75.44;100374.10;233086;1203;103145;-75
2021/04/22 16:05:30;;;;;;;4.35;2.55;;;;;;;6.52;78.45;100365.08;233221;1203;103242;-73
2021/04/22 16:10:32;;;;;;;4.53;2.40;;;;;;;6.45;78.61;100366.13;233185;1203;103731;-74
2021/04/22 16:15:34;;;;;;;3.73;2.27;;;;;;;6.72;76.31;100363.72;233359;1203;103211;-72
2021/04/22 16:20:35;;;;;;;2.60;2.00;;;;;;;7.53;68.92;100356.34;233560;1203;103165;-73
2021/04/22 16:25:37;;;;;;;2.70;2.00;;;;;;;7.88;67.88;100354.45;233735;1202;103152;-74
2021/04/22 16:30:39;;;;;;;3.95;1.80;;;;;;;8.10;63.09;100359.98;233196;1203;103136;-74
2021/04/22 16:35:40;;;;;;;2.93;1.93;;;;;;;7.78;64.63;100365.33;233004;1203;103223;-74
2021/04/22 16:40:42;;;;;;;6.13;2.90;;;;;;;6.85;70.77;100366.95;232908;1203;103290;-74
2021/04/22 16:45:44;;;;;;;3.70;2.20;;;;;;;7.07;70.47;100384.96;233010;1203;103194;-76
2021/04/22 16:50:46;;;;;;;4.07;2.50;;;;;;;7.26;71.86;100372.95;233509;1202;103140;-74
2021/04/22 16:55:48;;;;;;;3.80;2.80;;;;;;;7.25;73.72;100371.21;233154;1203;103139;-75
2021/04/22 17:00:49;;;;;;;3.80;2.68;;;;;;;6.98;74.47;100375.44;233405;1203;103159;-72
2021/04/22 17:05:50;;;;;;;3.93;2.63;;;;;;;6.85;77.05;100377.55;233045;1203;103220;-72
2021/04/22 17:10:52;;;;;;;6.40;3.13;;;;;;;6.74;75.76;100369.86;232982;1203;103286;-73
2021/04/22 17:15:54;;;;;;;6.77;3.50;;;;;;;6.66;76.33;100385.06;233099;1203;103602;-73
2021/04/22 17:20:56;;;;;;;8.07;4.03;;;;;;;6.72;77.42;100390.22;233435;1202;103127;-72
2021/04/22 17:25:58;;;;;;;7.25;3.90;;;;;;;6.48;77.88;100389.91;232909;1203;103555;-75
2021/04/22 17:30:59;;;;;;;4.40;2.90;;;;;;;6.30;79.99;100395.60;232660;1203;103520;-72
2021/04/22 17:36:01;;;;;;;6.58;3.10;;;;;;;6.25;80.43;100408.08;232863;1203;103181;-76
2021/04/22 17:41:03;;;;;;;7.95;2.80;;;;;;;6.26;79.61;100415.13;233577;1202;103222;-75
2021/04/22 17:46:05;;;;;;;4.80;3.00;;;;;;;6.06;80.51;100430.52;233280;1203;103151;-75
2021/04/22 17:51:07;;;;;;;4.77;2.70;;;;;;;5.94;82.31;100436.03;233650;1203;103523;-77
2021/04/22 17:56:08;;;;;;;4.35;2.95;;;;;;;5.87;84.46;100460.88;233791;1203;103274;-75
2021/04/22 18:01:10;;;;;;;3.65;2.35;;;;;;;5.82;87.67;100479.47;233784;1203;103143;-74
2021/04/22 18:06:11;;;;;;;3.93;2.60;;;;;;;6.08;88.40;100490.48;233061;1201;103216;-75
2021/04/22 18:11:13;;;;;;;8.08;4.35;;;;;;;6.12;85.65;100500.98;233481;1202;103104;-75
2021/04/22 18:16:14;;;;;;;6.05;2.10;;;;;;;5.78;76.46;100521.88;233596;1203;103221;-77
2021/04/22 18:21:16;;;;;;;3.90;1.35;;;;;;;5.51;75.58;100532.91;233072;1203;104321;-76
2021/04/22 18:26:18;;;;;;;4.55;2.10;;;;;;;5.30;81.83;100546.48;232813;1203;103552;-75
2021/04/22 18:31:20;;;;;;;7.30;1.60;;;;;;;5.11;88.57;100538.84;233379;1202;104543;-75
2021/04/22 18:36:24;;;;;;;7.45;1.50;;;;;;;5.22;88.21;100526.33;233587;1203;103667;-76
2021/04/22 18:41:26;;;;;;;7.73;2.50;;;;;;;5.50;86.84;100504.72;233536;1203;105313;-76
2021/04/22 18:46:27;;;;;;;4.00;2.43;;;;;;;5.43;85.97;100487.21;233547;1203;103226;-77
2021/04/22 18:51:29;;;;;;;5.35;1.80;;;;;;;5.09;89.02;100498.34;233594;1203;103222;-76
2021/04/22 18:56:30;;;;;;;3.80;1.40;;;;;;;5.10;89.01;100495.70;233571;1203;103226;-77
2021/04/22 19:01:32;;;;;;;6.70;1.70;;;;;;;4.90;91.47;100496.00;233556;1202;103213;-77
2021/04/22 19:06:33;;;;;;;5.90;1.80;;;;;;;4.78;95.28;100498.83;233594;1203;103337;-78
2021/04/22 19:11:37;;;;;;;10.70;1.60;;;;;;;4.74;95.60;100505.03;233530;1203;103092;-77
2021/04/22 19:16:39;;;;;;;7.33;2.63;;;;;;;4.71;95.42;100499.81;233529;1203;103223;-75
2021/04/22 19:21:41;;;;;;;16.55;10.25;;;;;;;4.70;94.34;100505.98;233579;1203;103220;-77
2021/04/22 19:26:43;;;;;;;6.07;2.83;;;;;;;4.61;96.26;100507.84;233574;1203;103204;-77
2021/04/22 19:31:44;;;;;;;8.63;3.30;;;;;;;4.58;98.89;100505.23;233760;1202;103216;-77
2021/04/22 19:36:46;;;;;;;9.47;4.83;;;;;;;4.55;98.25;100513.22;233649;1203;103219;-76
2021/04/22 19:41:48;;;;;;;17.45;6.60;;;;;;;4.49;98.18;100521.22;233455;1203;103510;-77
2021/04/22 19:46:50;;;;;;;14.00;8.25;;;;;;;4.30;100.00;100517.94;233699;1202;103514;-77
2021/04/22 19:51:51;;;;;;;12.20;6.80;;;;;;;4.36;100.00;100516.99;233663;1203;103533;-76
2021/04/22 19:56:55;;;;;;;12.70;7.15;;;;;;;4.15;100.00;100516.36;233589;1203;103146;-79
2021/04/22 20:01:56;;;;;;;8.33;5.60;;;;;;;4.13;100.00;100520.77;233414;1203;103249;-76
2021/04/22 20:06:57;;;;;;;12.85;5.75;;;;;;;4.04;100.00;100520.86;233309;1202;103178;-73
2021/04/22 20:11:59;;;;;;;12.37;6.33;;;;;;;4.00;100.00;100514.75;233456;1203;103245;-75
2021/04/22 20:17:00;;;;;;;16.85;7.80;;;;;;;4.04;100.00;100508.56;233576;1203;103216;-75
2021/04/22 20:22:03;;;;;;;9.10;6.25;;;;;;;4.02;100.00;100515.61;233214;1203;103194;-77
2021/04/22 20:27:05;;;;;;;14.00;6.90;;;;;;;3.95;100.00;100521.84;233509;1203;103219;-75
2021/04/22 20:32:07;;;;;;;15.10;7.63;;;;;;;4.04;100.00;100531.42;233605;1203;104299;-77
2021/04/22 20:37:09;;;;;;;11.60;7.17;;;;;;;4.03;100.00;100521.75;233598;1202;103575;-77
2021/04/22 20:42:11;;;;;;;13.30;7.90;;;;;;;4.06;100.00;100524.38;233782;1203;104683;-77
2021/04/22 20:47:12;;;;;;;13.90;8.80;;;;;;;4.05;100.00;100522.62;234170;1203;103262;-75
2021/04/22 20:52:14;;;;;;;17.65;9.75;;;;;;;4.04;100.00;100524.39;233809;1202;103220;-76
2021/04/22 20:57:15;;;;;;;14.70;8.83;;;;;;;4.03;100.00;100529.66;233503;1202;104509;-76
2021/04/22 21:02:17;;;;;;;16.35;9.05;;;;;;;4.09;100.00;100524.31;233459;1202;103211;-76
2021/04/22 21:07:18;;;;;;;16.78;9.70;;;;;;;4.05;100.00;100522.62;233579;1203;103251;-76
2021/04/22 21:12:20;;;;;;;13.33;8.17;;;;;;;4.02;100.00;100528.80;233586;1203;103216;-77
2021/04/22 21:17:22;;;;;;;17.75;7.80;;;;;;;3.99;100.00;100528.83;233557;1203;103377;-76
2021/04/22 21:22:24;;;;;;;11.00;7.40;;;;;;;4.02;100.00;100523.53;233632;1203;103212;-77
2021/04/22 21:27:28;;;;;;;12.27;7.73;;;;;;;4.04;100.00;100526.14;233618;1203;103239;-76
2021/04/22 21:32:30;;;;;;;12.70;7.85;;;;;;;3.97;100.00;100526.21;233544;1203;103223;-77
2021/04/22 21:37:33;;;;;;;13.83;8.60;;;;;;;3.92;100.00;100533.31;233577;1203;103219;-77
2021/04/22 21:42:34;;;;;;;14.37;8.17;;;;;;;4.01;100.00;100536.74;233773;1203;103603;-77
2021/04/22 21:47:36;;;;;;;11.47;7.70;;;;;;;3.92;100.00;100521.87;233565;1203;103219;-76
2021/04/22 21:52:38;;;;;;;10.83;7.70;;;;;;;3.89;100.00;100522.77;233566;1203;103235;-77
2021/04/22 21:57:41;;;;;;;14.05;8.20;;;;;;;3.86;100.00;100516.66;233545;1203;103242;-76
2021/04/22 22:02:42;;;;;;;10.23;6.47;;;;;;;3.72;100.00;100530.00;233601;1203;103220;-77
2021/04/22 22:07:44;;;;;;;10.20;6.43;;;;;;;3.61;100.00;100530.95;233532;1203;103239;-77
2021/04/22 22:12:46;;;;;;;14.00;8.40;;;;;;;3.66;100.00;100537.05;233517;1203;103216;-77
2021/04/22 22:17:49;;;;;;;13.23;7.45;;;;;;;3.64;100.00;100546.77;233484;1203;103136;-77
2021/04/22 22:22:50;;;;;;;14.00;9.40;;;;;;;3.66;100.00;100546.73;233487;1203;103251;-77
2021/04/22 22:27:52;;;;;;;13.00;7.90;;;;;;;3.52;100.00;100549.52;233571;1201;103161;-77
2021/04/22 22:32:55;;;;;;;15.70;7.90;;;;;;;3.49;100.00;100539.84;233486;1203;104735;-75
2021/04/22 22:37:57;;;;;;;12.27;7.27;;;;;;;3.55;100.00;100546.83;233738;1203;103564;-76
2021/04/22 22:43:01;;;;;;;13.20;6.90;;;;;;;3.50;100.00;100553.91;233525;1203;103216;-74
2021/04/22 22:48:08;;;;;;;15.05;7.20;;;;;;;3.53;100.00;100543.33;233590;1202;104325;-76
2021/04/22 22:53:11;;;;;;;9.90;5.60;;;;;;;3.54;100.00;100547.72;233543;1203;103210;-76
2021/04/22 22:58:13;;;;;;;10.90;6.50;;;;;;;3.57;100.00;100545.06;233687;1203;103271;-76
2021/04/22 23:03:16;;;;;;;11.70;6.70;;;;;;;3.58;100.00;100541.55;233523;1203;103156;-76